sensor_id;sensor_type;location;lat;lon;timestamp;P1;durP1;ratioP1;P2;durP2;ratioP2
30505;SDS011;17292;51.600;4.994;2022-09-12T07:37:29;13.60;;;7.25;;
30505;SDS011;17292;51.600;4.994;2022-09-12T07:39:56;11.93;;;8.10;;
30505;SDS011;17292;51.600;4.994;2022-09-12T07:42:23;11.70;;;6.97;;
30505;SDS011;17292;51.600;4.994;2022-09-12T07:44:49;14.48;;;6.40;;
30505;SDS011;17292;51.600;4.994;2022-09-12T07:47:16;17.55;;;7.63;;
30505;SDS011;17292;51.600;4.994;2022-09-12T07:49:43;11.60;;;8.52;;
30505;SDS011;17292;51.600;4.994;2022-09-12T07:52:09;10.50;;;7.03;;
30505;SDS011;17292;51.600;4.994;2022-09-12T07:54:35;12.30;;;7.20;;
30505;SDS011;17292;51.600;4.994;2022-09-12T07:57:01;10.38;;;5.00;;
30505;SDS011;17292;51.600;4.994;2022-09-12T07:59:27;12.60;;;5.45;;
30505;SDS011;17292;51.600;4.994;2022-09-12T08:01:54;9.70;;;5.13;;
30505;SDS011;17292;51.600;4.994;2022-09-12T08:04:20;10.90;;;5.00;;
30505;SDS011;17292;51.600;4.994;2022-09-12T08:06:46;10.63;;;4.43;;
30505;SDS011;17292;51.600;4.994;2022-09-12T08:09:13;7.78;;;4.70;;
30505;SDS011;17292;51.600;4.994;2022-09-12T08:11:41;10.68;;;4.68;;
30505;SDS011;17292;51.600;4.994;2022-09-12T08:14:08;8.93;;;4.40;;
30505;SDS011;17292;51.600;4.994;2022-09-12T08:16:34;9.32;;;4.20;;
30505;SDS011;17292;51.600;4.994;2022-09-12T08:19:01;6.03;;;3.92;;
30505;SDS011;17292;51.600;4.994;2022-09-12T08:21:29;8.30;;;4.13;;
30505;SDS011;17292;51.600;4.994;2022-09-12T08:23:57;6.22;;;3.40;;
30505;SDS011;17292;51.600;4.994;2022-09-12T08:26:25;8.38;;;3.97;;
30505;SDS011;17292;51.600;4.994;2022-09-12T08:28:51;8.90;;;4.00;;
30505;SDS011;17292;51.600;4.994;2022-09-12T08:31:18;10.73;;;3.95;;
30505;SDS011;17292;51.600;4.994;2022-09-12T08:33:45;9.70;;;3.80;;
30505;SDS011;17292;51.600;4.994;2022-09-12T08:36:12;11.27;;;3.88;;
30505;SDS011;17292;51.600;4.994;2022-09-12T08:38:40;6.28;;;3.63;;
30505;SDS011;17292;51.600;4.994;2022-09-12T08:46:27;7.97;;;3.53;;
30505;SDS011;17292;51.600;4.994;2022-09-12T08:48:54;4.07;;;3.67;;
30505;SDS011;17292;51.600;4.994;2022-09-12T08:51:21;6.35;;;3.78;;
30505;SDS011;17292;51.600;4.994;2022-09-12T08:53:48;14.38;;;4.05;;
30505;SDS011;17292;51.600;4.994;2022-09-12T08:56:14;5.68;;;4.20;;
30505;SDS011;17292;51.600;4.994;2022-09-12T08:58:42;7.88;;;3.83;;
30505;SDS011;17292;51.600;4.994;2022-09-12T09:09:17;10.02;;;4.10;;
30505;SDS011;17292;51.600;4.994;2022-09-12T09:17:58;9.20;;;4.07;;
30505;SDS011;17292;51.600;4.994;2022-09-12T09:24:54;10.25;;;4.13;;
30505;SDS011;17292;51.600;4.994;2022-09-12T09:29:51;11.40;;;4.07;;
30505;SDS011;17292;51.600;4.994;2022-09-12T09:32:26;9.05;;;4.63;;
30505;SDS011;17292;51.600;4.994;2022-09-12T09:34:53;8.90;;;4.20;;
30505;SDS011;17292;51.600;4.994;2022-09-12T09:37:36;13.07;;;4.32;;
30505;SDS011;17292;51.600;4.994;2022-09-12T09:45:21;9.48;;;4.47;;
30505;SDS011;17292;51.600;4.994;2022-09-12T09:47:52;7.57;;;4.65;;
30505;SDS011;17292;51.600;4.994;2022-09-12T09:52:47;7.90;;;3.90;;
30505;SDS011;17292;51.600;4.994;2022-09-12T09:55:16;9.00;;;4.63;;
30505;SDS011;17292;51.600;4.994;2022-09-12T09:57:44;10.10;;;4.80;;
30505;SDS011;17292;51.600;4.994;2022-09-12T10:00:27;9.98;;;4.50;;
30505;SDS011;17292;51.600;4.994;2022-09-12T10:05:27;13.90;;;4.50;;
30505;SDS011;17292;51.600;4.994;2022-09-12T10:07:54;10.20;;;4.05;;
30505;SDS011;17292;51.600;4.994;2022-09-12T10:10:20;10.65;;;4.20;;
30505;SDS011;17292;51.600;4.994;2022-09-12T10:12:50;9.77;;;4.63;;
30505;SDS011;17292;51.600;4.994;2022-09-12T10:15:17;14.25;;;4.47;;
30505;SDS011;17292;51.600;4.994;2022-09-12T10:17:45;11.07;;;4.63;;
30505;SDS011;17292;51.600;4.994;2022-09-12T10:22:53;13.13;;;4.93;;
30505;SDS011;17292;51.600;4.994;2022-09-12T10:25:19;14.95;;;4.80;;
30505;SDS011;17292;51.600;4.994;2022-09-12T10:27:51;16.70;;;5.28;;
30505;SDS011;17292;51.600;4.994;2022-09-12T10:30:18;13.25;;;5.32;;
30505;SDS011;17292;51.600;4.994;2022-09-12T10:32:47;14.35;;;4.80;;
30505;SDS011;17292;51.600;4.994;2022-09-12T10:35:20;9.73;;;4.80;;
30505;SDS011;17292;51.600;4.994;2022-09-12T10:38:00;10.43;;;4.80;;
30505;SDS011;17292;51.600;4.994;2022-09-12T10:40:36;14.68;;;5.07;;
30505;SDS011;17292;51.600;4.994;2022-09-12T10:43:25;9.52;;;4.57;;
30505;SDS011;17292;51.600;4.994;2022-09-12T10:45:55;10.63;;;4.35;;
30505;SDS011;17292;51.600;4.994;2022-09-12T10:48:27;5.88;;;4.32;;
30505;SDS011;17292;51.600;4.994;2022-09-12T10:50:54;11.60;;;4.75;;
30505;SDS011;17292;51.600;4.994;2022-09-12T10:53:24;11.65;;;4.72;;
30505;SDS011;17292;51.600;4.994;2022-09-12T10:56:02;12.52;;;5.05;;
30505;SDS011;17292;51.600;4.994;2022-09-12T11:01:04;19.05;;;6.15;;
30505;SDS011;17292;51.600;4.994;2022-09-12T11:03:50;15.50;;;5.40;;
30505;SDS011;17292;51.600;4.994;2022-09-12T11:06:19;11.05;;;4.75;;
30505;SDS011;17292;51.600;4.994;2022-09-12T11:11:45;11.80;;;4.40;;
30505;SDS011;17292;51.600;4.994;2022-09-12T11:24:47;15.98;;;5.05;;
30505;SDS011;17292;51.600;4.994;2022-09-12T11:27:50;11.38;;;5.50;;
30505;SDS011;17292;51.600;4.994;2022-09-12T11:30:12;12.90;;;5.28;;
30505;SDS011;17292;51.600;4.994;2022-09-12T11:32:52;13.38;;;5.53;;
30505;SDS011;17292;51.600;4.994;2022-09-12T11:35:28;11.75;;;5.13;;
30505;SDS011;17292;51.600;4.994;2022-09-12T11:38:13;16.08;;;5.57;;
30505;SDS011;17292;51.600;4.994;2022-09-12T11:43:17;11.15;;;6.10;;
30505;SDS011;17292;51.600;4.994;2022-09-12T11:45:46;13.02;;;5.88;;
30505;SDS011;17292;51.600;4.994;2022-09-12T11:48:26;15.23;;;6.32;;
30505;SDS011;17292;51.600;4.994;2022-09-12T11:50:57;11.27;;;5.55;;
30505;SDS011;17292;51.600;4.994;2022-09-12T11:53:27;14.55;;;6.40;;
30505;SDS011;17292;51.600;4.994;2022-09-12T11:55:57;19.08;;;6.72;;
30505;SDS011;17292;51.600;4.994;2022-09-12T11:58:25;16.13;;;5.82;;
30505;SDS011;17292;51.600;4.994;2022-09-12T12:00:55;18.60;;;6.07;;
30505;SDS011;17292;51.600;4.994;2022-09-12T12:03:24;11.27;;;5.53;;
30505;SDS011;17292;51.600;4.994;2022-09-12T12:05:58;14.75;;;5.60;;
30505;SDS011;17292;51.600;4.994;2022-09-12T12:08:28;15.32;;;6.65;;
30505;SDS011;17292;51.600;4.994;2022-09-12T12:11:02;15.23;;;6.57;;
30505;SDS011;17292;51.600;4.994;2022-09-12T12:13:30;16.70;;;6.22;;
30505;SDS011;17292;51.600;4.994;2022-09-12T12:16:07;9.82;;;5.70;;
30505;SDS011;17292;51.600;4.994;2022-09-12T12:18:37;10.05;;;7.00;;
30505;SDS011;17292;51.600;4.994;2022-09-12T12:26:41;11.30;;;6.30;;
30505;SDS011;17292;51.600;4.994;2022-09-12T12:34:31;12.93;;;6.47;;
30505;SDS011;17292;51.600;4.994;2022-09-12T12:36:57;12.75;;;6.97;;
30505;SDS011;17292;51.600;4.994;2022-09-12T12:40:20;13.70;;;6.32;;
30505;SDS011;17292;51.600;4.994;2022-09-12T12:44:57;14.68;;;6.55;;
30505;SDS011;17292;51.600;4.994;2022-09-12T12:47:24;17.48;;;6.97;;
30505;SDS011;17292;51.600;4.994;2022-09-12T12:49:52;11.35;;;6.53;;
30505;SDS011;17292;51.600;4.994;2022-09-12T12:52:20;16.35;;;6.13;;
30505;SDS011;17292;51.600;4.994;2022-09-12T12:54:47;15.30;;;6.78;;
30505;SDS011;17292;51.600;4.994;2022-09-12T12:59:51;18.67;;;6.78;;
30505;SDS011;17292;51.600;4.994;2022-09-12T13:02:19;21.10;;;7.38;;
30505;SDS011;17292;51.600;4.994;2022-09-12T13:04:47;13.68;;;6.78;;
30505;SDS011;17292;51.600;4.994;2022-09-12T13:07:20;18.25;;;7.35;;
30505;SDS011;17292;51.600;4.994;2022-09-12T13:09:47;13.63;;;7.07;;
30505;SDS011;17292;51.600;4.994;2022-09-12T13:12:18;23.73;;;7.63;;
30505;SDS011;17292;51.600;4.994;2022-09-12T13:17:20;11.52;;;7.18;;
30505;SDS011;17292;51.600;4.994;2022-09-12T13:19:49;15.05;;;6.95;;
30505;SDS011;17292;51.600;4.994;2022-09-12T13:22:17;14.52;;;6.75;;
30505;SDS011;17292;51.600;4.994;2022-09-12T13:24:47;20.92;;;6.88;;
30505;SDS011;17292;51.600;4.994;2022-09-12T13:27:23;17.80;;;6.82;;
30505;SDS011;17292;51.600;4.994;2022-09-12T13:30:04;13.23;;;6.70;;
30505;SDS011;17292;51.600;4.994;2022-09-12T13:32:31;13.75;;;6.60;;
30505;SDS011;17292;51.600;4.994;2022-09-12T13:35:13;16.52;;;7.35;;
30505;SDS011;17292;51.600;4.994;2022-09-12T13:38:27;17.85;;;7.07;;
30505;SDS011;17292;51.600;4.994;2022-09-12T13:43:12;12.57;;;6.93;;
30505;SDS011;17292;51.600;4.994;2022-09-12T13:45:39;11.15;;;6.47;;
30505;SDS011;17292;51.600;4.994;2022-09-12T13:48:09;15.50;;;6.78;;
30505;SDS011;17292;51.600;4.994;2022-09-12T13:50:40;15.15;;;7.60;;
30505;SDS011;17292;51.600;4.994;2022-09-12T13:53:11;15.40;;;6.80;;
30505;SDS011;17292;51.600;4.994;2022-09-12T13:55:40;19.13;;;7.70;;
30505;SDS011;17292;51.600;4.994;2022-09-12T14:03:31;16.77;;;6.90;;
30505;SDS011;17292;51.600;4.994;2022-09-12T14:06:16;19.92;;;7.65;;
30505;SDS011;17292;51.600;4.994;2022-09-12T14:08:44;18.58;;;7.93;;
30505;SDS011;17292;51.600;4.994;2022-09-12T14:11:11;10.70;;;6.90;;
30505;SDS011;17292;51.600;4.994;2022-09-12T14:13:42;18.38;;;7.35;;
30505;SDS011;17292;51.600;4.994;2022-09-12T14:16:10;17.02;;;6.95;;
30505;SDS011;17292;51.600;4.994;2022-09-12T14:18:37;12.85;;;7.00;;
30505;SDS011;17292;51.600;4.994;2022-09-12T14:21:08;11.80;;;6.50;;
30505;SDS011;17292;51.600;4.994;2022-09-12T14:23:35;14.35;;;7.63;;
30505;SDS011;17292;51.600;4.994;2022-09-12T14:26:07;17.50;;;7.22;;
30505;SDS011;17292;51.600;4.994;2022-09-12T14:28:35;16.70;;;7.30;;
30505;SDS011;17292;51.600;4.994;2022-09-12T14:31:06;22.73;;;7.50;;
30505;SDS011;17292;51.600;4.994;2022-09-12T14:33:51;14.52;;;7.13;;
30505;SDS011;17292;51.600;4.994;2022-09-12T14:38:45;17.10;;;6.85;;
30505;SDS011;17292;51.600;4.994;2022-09-12T14:41:12;15.43;;;7.20;;
30505;SDS011;17292;51.600;4.994;2022-09-12T14:43:43;14.43;;;7.53;;
30505;SDS011;17292;51.600;4.994;2022-09-12T14:46:23;14.30;;;7.47;;
30505;SDS011;17292;51.600;4.994;2022-09-12T14:48:52;15.83;;;7.23;;
30505;SDS011;17292;51.600;4.994;2022-09-12T14:51:26;14.55;;;7.38;;
30505;SDS011;17292;51.600;4.994;2022-09-12T14:53:53;13.63;;;7.35;;
30505;SDS011;17292;51.600;4.994;2022-09-12T14:56:20;14.02;;;7.38;;
30505;SDS011;17292;51.600;4.994;2022-09-12T14:58:46;10.55;;;7.47;;
30505;SDS011;17292;51.600;4.994;2022-09-12T15:06:17;21.60;;;8.00;;
30505;SDS011;17292;51.600;4.994;2022-09-12T15:08:45;14.15;;;6.90;;
30505;SDS011;17292;51.600;4.994;2022-09-12T15:11:11;16.05;;;7.13;;
30505;SDS011;17292;51.600;4.994;2022-09-12T15:13:38;11.80;;;7.28;;
30505;SDS011;17292;51.600;4.994;2022-09-12T15:16:09;16.92;;;7.38;;
30505;SDS011;17292;51.600;4.994;2022-09-12T15:18:35;15.35;;;7.53;;
30505;SDS011;17292;51.600;4.994;2022-09-12T15:21:03;13.80;;;7.65;;
30505;SDS011;17292;51.600;4.994;2022-09-12T15:23:32;12.52;;;7.20;;
30505;SDS011;17292;51.600;4.994;2022-09-12T15:25:59;18.58;;;7.53;;
30505;SDS011;17292;51.600;4.994;2022-09-12T15:28:26;9.68;;;7.28;;
30505;SDS011;17292;51.600;4.994;2022-09-12T15:30:53;11.63;;;6.82;;
30505;SDS011;17292;51.600;4.994;2022-09-12T15:33:21;13.10;;;6.72;;
30505;SDS011;17292;51.600;4.994;2022-09-12T15:35:48;11.63;;;7.05;;
30505;SDS011;17292;51.600;4.994;2022-09-12T15:38:15;13.25;;;6.90;;
30505;SDS011;17292;51.600;4.994;2022-09-12T15:40:41;9.63;;;6.22;;
30505;SDS011;17292;51.600;4.994;2022-09-12T15:43:08;10.52;;;7.45;;
30505;SDS011;17292;51.600;4.994;2022-09-12T15:45:35;12.00;;;6.82;;
30505;SDS011;17292;51.600;4.994;2022-09-12T15:48:01;12.10;;;7.22;;
30505;SDS011;17292;51.600;4.994;2022-09-12T15:50:28;12.45;;;7.10;;
30505;SDS011;17292;51.600;4.994;2022-09-12T15:52:54;17.02;;;6.95;;
30505;SDS011;17292;51.600;4.994;2022-09-12T15:55:24;10.50;;;6.80;;
30505;SDS011;17292;51.600;4.994;2022-09-12T15:57:51;12.10;;;6.90;;
30505;SDS011;17292;51.600;4.994;2022-09-12T16:00:17;9.82;;;6.63;;
30505;SDS011;17292;51.600;4.994;2022-09-12T16:02:45;10.30;;;6.55;;
30505;SDS011;17292;51.600;4.994;2022-09-12T16:05:15;14.90;;;6.80;;
30505;SDS011;17292;51.600;4.994;2022-09-12T16:07:42;16.95;;;7.28;;
30505;SDS011;17292;51.600;4.994;2022-09-12T16:10:16;18.17;;;7.72;;
30505;SDS011;17292;51.600;4.994;2022-09-12T16:12:43;11.98;;;6.72;;
30505;SDS011;17292;51.600;4.994;2022-09-12T16:15:14;12.00;;;6.68;;
30505;SDS011;17292;51.600;4.994;2022-09-12T16:17:40;12.02;;;6.30;;
30505;SDS011;17292;51.600;4.994;2022-09-12T16:20:07;12.57;;;6.97;;
30505;SDS011;17292;51.600;4.994;2022-09-12T16:22:33;13.13;;;6.25;;
30505;SDS011;17292;51.600;4.994;2022-09-12T16:24:59;9.57;;;6.43;;
30505;SDS011;17292;51.600;4.994;2022-09-12T16:27:26;14.07;;;7.57;;
30505;SDS011;17292;51.600;4.994;2022-09-12T16:29:52;9.60;;;6.28;;
30505;SDS011;17292;51.600;4.994;2022-09-12T16:32:18;10.63;;;6.72;;
30505;SDS011;17292;51.600;4.994;2022-09-12T16:34:44;7.32;;;5.95;;
30505;SDS011;17292;51.600;4.994;2022-09-12T16:37:11;11.50;;;6.75;;
30505;SDS011;17292;51.600;4.994;2022-09-12T16:39:37;8.30;;;6.05;;
30505;SDS011;17292;51.600;4.994;2022-09-12T16:42:03;10.32;;;6.35;;
30505;SDS011;17292;51.600;4.994;2022-09-12T16:44:29;14.38;;;7.00;;
30505;SDS011;17292;51.600;4.994;2022-09-12T16:46:56;10.90;;;6.80;;
30505;SDS011;17292;51.600;4.994;2022-09-12T16:49:22;11.55;;;6.82;;
30505;SDS011;17292;51.600;4.994;2022-09-12T16:51:48;8.32;;;6.53;;
30505;SDS011;17292;51.600;4.994;2022-09-12T16:54:15;9.50;;;6.80;;
30505;SDS011;17292;51.600;4.994;2022-09-12T16:56:42;9.40;;;7.03;;
30505;SDS011;17292;51.600;4.994;2022-09-12T16:59:08;10.43;;;6.57;;
30505;SDS011;17292;51.600;4.994;2022-09-12T17:01:38;9.85;;;6.93;;
30505;SDS011;17292;51.600;4.994;2022-09-12T17:04:05;9.63;;;6.55;;
30505;SDS011;17292;51.600;4.994;2022-09-12T17:06:31;11.55;;;6.90;;
30505;SDS011;17292;51.600;4.994;2022-09-12T17:08:58;12.55;;;7.00;;
30505;SDS011;17292;51.600;4.994;2022-09-12T17:11:26;12.35;;;6.70;;
30505;SDS011;17292;51.600;4.994;2022-09-12T17:13:54;9.50;;;6.72;;
30505;SDS011;17292;51.600;4.994;2022-09-12T17:16:22;10.27;;;6.18;;
30505;SDS011;17292;51.600;4.994;2022-09-12T17:18:49;9.55;;;6.65;;
30505;SDS011;17292;51.600;4.994;2022-09-12T17:21:16;8.43;;;6.10;;
30505;SDS011;17292;51.600;4.994;2022-09-12T17:23:42;16.30;;;6.57;;
30505;SDS011;17292;51.600;4.994;2022-09-12T17:26:09;11.57;;;7.13;;
30505;SDS011;17292;51.600;4.994;2022-09-12T17:28:36;8.50;;;6.97;;
30505;SDS011;17292;51.600;4.994;2022-09-12T17:31:04;8.68;;;6.38;;
30505;SDS011;17292;51.600;4.994;2022-09-12T17:33:30;10.07;;;6.82;;
30505;SDS011;17292;51.600;4.994;2022-09-12T17:36:04;15.15;;;6.90;;
30505;SDS011;17292;51.600;4.994;2022-09-12T17:38:31;8.43;;;6.57;;
30505;SDS011;17292;51.600;4.994;2022-09-12T17:41:15;11.23;;;7.20;;
30505;SDS011;17292;51.600;4.994;2022-09-12T17:43:45;14.38;;;6.90;;
30505;SDS011;17292;51.600;4.994;2022-09-12T17:46:14;9.80;;;6.70;;
30505;SDS011;17292;51.600;4.994;2022-09-12T17:48:40;12.43;;;6.40;;
30505;SDS011;17292;51.600;4.994;2022-09-12T17:51:11;11.45;;;7.47;;
30505;SDS011;17292;51.600;4.994;2022-09-12T17:53:38;7.10;;;6.40;;
30505;SDS011;17292;51.600;4.994;2022-09-12T17:56:04;10.13;;;7.15;;
30505;SDS011;17292;51.600;4.994;2022-09-12T17:58:31;11.00;;;7.60;;
30505;SDS011;17292;51.600;4.994;2022-09-12T18:01:05;13.48;;;7.28;;
30505;SDS011;17292;51.600;4.994;2022-09-12T18:03:54;13.57;;;7.40;;
30505;SDS011;17292;51.600;4.994;2022-09-12T18:06:21;12.55;;;6.90;;
30505;SDS011;17292;51.600;4.994;2022-09-12T18:08:47;11.52;;;6.85;;
30505;SDS011;17292;51.600;4.994;2022-09-12T18:11:14;9.07;;;7.00;;
30505;SDS011;17292;51.600;4.994;2022-09-12T18:13:40;10.35;;;7.70;;
30505;SDS011;17292;51.600;4.994;2022-09-12T18:16:07;13.68;;;7.43;;
30505;SDS011;17292;51.600;4.994;2022-09-12T18:18:34;11.15;;;6.75;;
30505;SDS011;17292;51.600;4.994;2022-09-12T18:21:05;14.60;;;6.80;;
30505;SDS011;17292;51.600;4.994;2022-09-12T18:23:31;9.15;;;7.22;;
30505;SDS011;17292;51.600;4.994;2022-09-12T18:25:58;10.48;;;7.25;;
30505;SDS011;17292;51.600;4.994;2022-09-12T18:28:25;14.05;;;7.20;;
30505;SDS011;17292;51.600;4.994;2022-09-12T18:30:51;10.60;;;7.50;;
30505;SDS011;17292;51.600;4.994;2022-09-12T18:33:18;9.95;;;7.25;;
30505;SDS011;17292;51.600;4.994;2022-09-12T18:35:44;8.68;;;6.55;;
30505;SDS011;17292;51.600;4.994;2022-09-12T18:38:10;8.27;;;6.85;;
30505;SDS011;17292;51.600;4.994;2022-09-12T18:40:37;15.20;;;7.05;;
30505;SDS011;17292;51.600;4.994;2022-09-12T18:43:03;10.93;;;6.97;;
30505;SDS011;17292;51.600;4.994;2022-09-12T18:45:29;14.02;;;7.50;;
30505;SDS011;17292;51.600;4.994;2022-09-12T18:47:55;10.23;;;7.25;;
30505;SDS011;17292;51.600;4.994;2022-09-12T18:50:22;10.23;;;7.10;;
30505;SDS011;17292;51.600;4.994;2022-09-12T18:52:54;10.20;;;6.72;;
30505;SDS011;17292;51.600;4.994;2022-09-12T18:55:21;8.27;;;7.00;;
30505;SDS011;17292;51.600;4.994;2022-09-12T18:57:48;8.95;;;7.00;;
30505;SDS011;17292;51.600;4.994;2022-09-12T19:00:15;7.60;;;6.70;;
30505;SDS011;17292;51.600;4.994;2022-09-12T19:02:42;10.35;;;7.05;;
30505;SDS011;17292;51.600;4.994;2022-09-12T19:05:08;14.10;;;7.25;;
30505;SDS011;17292;51.600;4.994;2022-09-12T19:07:36;14.27;;;7.30;;
30505;SDS011;17292;51.600;4.994;2022-09-12T19:10:03;8.07;;;6.95;;
30505;SDS011;17292;51.600;4.994;2022-09-12T19:12:29;11.75;;;6.95;;
30505;SDS011;17292;51.600;4.994;2022-09-12T19:14:55;9.15;;;7.00;;
30505;SDS011;17292;51.600;4.994;2022-09-12T19:17:22;11.38;;;7.53;;
30505;SDS011;17292;51.600;4.994;2022-09-12T19:19:48;9.70;;;6.88;;
30505;SDS011;17292;51.600;4.994;2022-09-12T19:22:14;10.90;;;6.82;;
30505;SDS011;17292;51.600;4.994;2022-09-12T19:24:41;10.48;;;7.10;;
30505;SDS011;17292;51.600;4.994;2022-09-12T19:27:07;10.38;;;7.15;;
30505;SDS011;17292;51.600;4.994;2022-09-12T19:29:35;11.35;;;6.90;;
30505;SDS011;17292;51.600;4.994;2022-09-12T19:32:01;16.30;;;7.18;;
30505;SDS011;17292;51.600;4.994;2022-09-12T19:34:28;12.25;;;6.63;;
30505;SDS011;17292;51.600;4.994;2022-09-12T19:36:54;10.35;;;6.15;;
30505;SDS011;17292;51.600;4.994;2022-09-12T19:39:23;10.15;;;6.75;;
30505;SDS011;17292;51.600;4.994;2022-09-12T19:41:49;9.30;;;6.70;;
30505;SDS011;17292;51.600;4.994;2022-09-12T19:44:16;8.35;;;6.43;;
30505;SDS011;17292;51.600;4.994;2022-09-12T19:46:43;8.50;;;6.93;;
30505;SDS011;17292;51.600;4.994;2022-09-12T19:49:10;8.10;;;6.57;;
30505;SDS011;17292;51.600;4.994;2022-09-12T19:51:37;9.85;;;6.93;;
30505;SDS011;17292;51.600;4.994;2022-09-12T19:54:03;13.30;;;6.97;;
30505;SDS011;17292;51.600;4.994;2022-09-12T19:56:30;9.73;;;7.13;;
30505;SDS011;17292;51.600;4.994;2022-09-12T19:58:56;12.57;;;6.85;;
30505;SDS011;17292;51.600;4.994;2022-09-12T20:01:23;8.48;;;6.40;;
30505;SDS011;17292;51.600;4.994;2022-09-12T20:03:52;8.55;;;6.85;;
30505;SDS011;17292;51.600;4.994;2022-09-12T20:06:18;9.48;;;6.80;;
30505;SDS011;17292;51.600;4.994;2022-09-12T20:08:45;10.18;;;7.18;;
30505;SDS011;17292;51.600;4.994;2022-09-12T20:11:12;11.65;;;6.78;;
30505;SDS011;17292;51.600;4.994;2022-09-12T20:13:39;10.55;;;7.53;;
30505;SDS011;17292;51.600;4.994;2022-09-12T20:16:06;10.95;;;6.88;;
30505;SDS011;17292;51.600;4.994;2022-09-12T20:18:32;9.02;;;6.78;;
30505;SDS011;17292;51.600;4.994;2022-09-12T20:21:05;8.00;;;6.50;;
30505;SDS011;17292;51.600;4.994;2022-09-12T20:23:31;10.13;;;7.05;;
30505;SDS011;17292;51.600;4.994;2022-09-12T20:26:01;9.00;;;7.35;;
30505;SDS011;17292;51.600;4.994;2022-09-12T20:28:28;9.30;;;6.50;;
30505;SDS011;17292;51.600;4.994;2022-09-12T20:30:59;10.10;;;6.97;;
30505;SDS011;17292;51.600;4.994;2022-09-12T20:33:25;7.40;;;6.40;;
30505;SDS011;17292;51.600;4.994;2022-09-12T20:35:52;7.70;;;6.43;;
30505;SDS011;17292;51.600;4.994;2022-09-12T20:38:18;8.98;;;7.05;;
30505;SDS011;17292;51.600;4.994;2022-09-12T20:40:47;8.13;;;6.60;;
30505;SDS011;17292;51.600;4.994;2022-09-12T20:43:13;9.23;;;7.25;;
30505;SDS011;17292;51.600;4.994;2022-09-12T20:45:40;7.15;;;6.45;;
30505;SDS011;17292;51.600;4.994;2022-09-12T20:48:06;7.55;;;6.65;;
30505;SDS011;17292;51.600;4.994;2022-09-12T20:50:32;13.80;;;7.22;;
30505;SDS011;17292;51.600;4.994;2022-09-12T20:52:58;9.15;;;6.82;;
30505;SDS011;17292;51.600;4.994;2022-09-12T20:55:25;12.65;;;7.05;;
30505;SDS011;17292;51.600;4.994;2022-09-12T20:57:52;11.93;;;6.90;;
30505;SDS011;17292;51.600;4.994;2022-09-12T21:00:18;8.25;;;6.57;;
30505;SDS011;17292;51.600;4.994;2022-09-12T21:02:44;10.10;;;7.00;;
30505;SDS011;17292;51.600;4.994;2022-09-12T21:05:10;8.50;;;6.50;;
30505;SDS011;17292;51.600;4.994;2022-09-12T21:07:37;7.50;;;6.50;;
30505;SDS011;17292;51.600;4.994;2022-09-12T21:10:03;10.07;;;7.40;;
30505;SDS011;17292;51.600;4.994;2022-09-12T21:12:29;10.27;;;7.30;;
30505;SDS011;17292;51.600;4.994;2022-09-12T21:14:56;9.35;;;6.68;;
30505;SDS011;17292;51.600;4.994;2022-09-12T21:17:22;8.05;;;6.72;;
30505;SDS011;17292;51.600;4.994;2022-09-12T21:19:48;10.20;;;6.90;;
30505;SDS011;17292;51.600;4.994;2022-09-12T21:22:14;8.23;;;6.47;;
30505;SDS011;17292;51.600;4.994;2022-09-12T21:24:40;11.20;;;6.72;;
30505;SDS011;17292;51.600;4.994;2022-09-12T21:27:07;12.25;;;6.70;;
30505;SDS011;17292;51.600;4.994;2022-09-12T21:29:33;8.40;;;7.15;;
30505;SDS011;17292;51.600;4.994;2022-09-12T21:31:59;7.72;;;6.93;;
30505;SDS011;17292;51.600;4.994;2022-09-12T21:34:25;7.25;;;6.55;;
30505;SDS011;17292;51.600;4.994;2022-09-12T21:36:51;8.48;;;6.50;;
30505;SDS011;17292;51.600;4.994;2022-09-12T21:39:18;7.82;;;6.43;;
30505;SDS011;17292;51.600;4.994;2022-09-12T21:41:44;6.90;;;6.20;;
30505;SDS011;17292;51.600;4.994;2022-09-12T21:44:10;7.68;;;6.75;;
30505;SDS011;17292;51.600;4.994;2022-09-12T21:46:36;8.23;;;6.65;;
30505;SDS011;17292;51.600;4.994;2022-09-12T21:49:02;7.57;;;6.65;;
30505;SDS011;17292;51.600;4.994;2022-09-12T21:51:29;12.18;;;6.63;;
30505;SDS011;17292;51.600;4.994;2022-09-12T21:53:55;6.75;;;6.05;;
30505;SDS011;17292;51.600;4.994;2022-09-12T21:56:21;8.85;;;7.03;;
30505;SDS011;17292;51.600;4.994;2022-09-12T21:58:47;8.70;;;6.57;;
30505;SDS011;17292;51.600;4.994;2022-09-12T22:01:14;9.80;;;6.68;;
30505;SDS011;17292;51.600;4.994;2022-09-12T22:03:40;8.30;;;6.50;;
30505;SDS011;17292;51.600;4.994;2022-09-12T22:06:07;7.93;;;6.80;;
30505;SDS011;17292;51.600;4.994;2022-09-12T22:08:33;8.68;;;5.90;;
30505;SDS011;17292;51.600;4.994;2022-09-12T22:11:01;14.20;;;7.00;;
30505;SDS011;17292;51.600;4.994;2022-09-12T22:13:28;7.63;;;6.38;;
30505;SDS011;17292;51.600;4.994;2022-09-12T22:15:56;9.90;;;6.32;;
30505;SDS011;17292;51.600;4.994;2022-09-12T22:18:22;11.48;;;6.57;;
30505;SDS011;17292;51.600;4.994;2022-09-12T22:20:49;6.72;;;5.80;;
30505;SDS011;17292;51.600;4.994;2022-09-12T22:23:22;6.85;;;6.13;;
30505;SDS011;17292;51.600;4.994;2022-09-12T22:26:07;7.25;;;6.50;;
30505;SDS011;17292;51.600;4.994;2022-09-12T22:28:34;10.18;;;6.45;;
30505;SDS011;17292;51.600;4.994;2022-09-12T22:31:00;7.43;;;6.55;;
30505;SDS011;17292;51.600;4.994;2022-09-12T22:33:29;9.18;;;6.55;;
30505;SDS011;17292;51.600;4.994;2022-09-12T22:35:55;8.95;;;6.50;;
30505;SDS011;17292;51.600;4.994;2022-09-12T22:38:21;6.15;;;5.60;;
30505;SDS011;17292;51.600;4.994;2022-09-12T22:40:48;9.63;;;6.82;;
30505;SDS011;17292;51.600;4.994;2022-09-12T22:43:15;11.70;;;6.85;;
30505;SDS011;17292;51.600;4.994;2022-09-12T22:45:41;8.98;;;6.53;;
30505;SDS011;17292;51.600;4.994;2022-09-12T22:48:07;7.75;;;6.07;;
30505;SDS011;17292;51.600;4.994;2022-09-12T22:50:33;10.77;;;6.57;;
30505;SDS011;17292;51.600;4.994;2022-09-12T22:53:00;6.50;;;5.97;;
30505;SDS011;17292;51.600;4.994;2022-09-12T22:55:26;7.95;;;6.05;;
30505;SDS011;17292;51.600;4.994;2022-09-12T22:57:52;7.70;;;6.18;;
30505;SDS011;17292;51.600;4.994;2022-09-12T23:00:18;7.43;;;6.35;;
30505;SDS011;17292;51.600;4.994;2022-09-12T23:02:44;9.85;;;6.32;;
30505;SDS011;17292;51.600;4.994;2022-09-12T23:05:11;6.65;;;6.05;;
30505;SDS011;17292;51.600;4.994;2022-09-12T23:07:37;6.85;;;6.15;;
30505;SDS011;17292;51.600;4.994;2022-09-12T23:10:04;8.82;;;6.65;;
30505;SDS011;17292;51.600;4.994;2022-09-12T23:12:30;11.88;;;6.88;;
30505;SDS011;17292;51.600;4.994;2022-09-12T23:14:56;7.88;;;6.20;;
30505;SDS011;17292;51.600;4.994;2022-09-12T23:17:23;6.90;;;6.07;;
30505;SDS011;17292;51.600;4.994;2022-09-12T23:19:49;7.75;;;6.53;;
30505;SDS011;17292;51.600;4.994;2022-09-12T23:22:15;8.05;;;6.35;;
30505;SDS011;17292;51.600;4.994;2022-09-12T23:24:41;7.57;;;6.32;;
30505;SDS011;17292;51.600;4.994;2022-09-12T23:27:08;8.20;;;6.30;;
30505;SDS011;17292;51.600;4.994;2022-09-12T23:29:34;7.00;;;6.22;;
30505;SDS011;17292;51.600;4.994;2022-09-12T23:32:01;9.00;;;6.13;;
30505;SDS011;17292;51.600;4.994;2022-09-12T23:34:27;7.35;;;6.57;;
30505;SDS011;17292;51.600;4.994;2022-09-12T23:36:54;8.10;;;6.40;;
30505;SDS011;17292;51.600;4.994;2022-09-12T23:39:20;8.15;;;6.57;;
30505;SDS011;17292;51.600;4.994;2022-09-12T23:41:47;11.68;;;6.45;;
30505;SDS011;17292;51.600;4.994;2022-09-12T23:44:14;10.88;;;6.25;;
30505;SDS011;17292;51.600;4.994;2022-09-12T23:46:40;9.73;;;6.20;;
30505;SDS011;17292;51.600;4.994;2022-09-12T23:49:06;7.72;;;6.20;;
30505;SDS011;17292;51.600;4.994;2022-09-12T23:51:33;6.72;;;6.03;;
30505;SDS011;17292;51.600;4.994;2022-09-12T23:53:59;8.70;;;6.45;;
30505;SDS011;17292;51.600;4.994;2022-09-12T23:56:26;8.65;;;6.15;;